Time;durP1;ratioP1;P1;durP2;ratioP2;P2;SDS_P1;SDS_P2;PMS_P1;PMS_P2;Temp;Humidity;BMP_temperature;BMP_pressure;BME280_temperature;BME280_humidity;BME280_pressure;Samples;Min_cycle;Max_cycle;Signal;HPM_P1;HPM_P2
2023/01/19 00:02:14;;;;;;;4.82;0.75;;;5.40;99.90;;;;;;5070148;28;20024;-70
2023/01/19 00:04:40;;;;;;;5.30;0.90;;;5.40;99.90;;;;;;5068984;28;20056;-71
2023/01/19 00:07:06;;;;;;;5.90;0.90;;;5.40;99.90;;;;;;5060808;28;20028;-71
2023/01/19 00:09:37;;;;;;;7.32;1.25;;;5.40;99.90;;;;;;5061830;28;20024;-71
2023/01/19 00:12:03;;;;;;;9.00;1.15;;;5.40;99.90;;;;;;5068560;28;20089;-71
2023/01/19 00:14:28;;;;;;;4.57;0.70;;;5.40;99.90;;;;;;5056459;28;20183;-71
2023/01/19 00:16:54;;;;;;;7.22;0.95;;;5.40;99.90;;;;;;5066374;28;20876;-71
2023/01/19 00:19:19;;;;;;;8.00;1.05;;;5.50;99.90;;;;;;5054531;28;20025;-71
2023/01/19 00:21:45;;;;;;;4.93;0.80;;;5.50;99.90;;;;;;5076541;28;20027;-71
2023/01/19 00:24:12;;;;;;;5.68;1.00;;;5.50;99.90;;;;;;5075637;28;20106;-70
2023/01/19 00:26:41;;;;;;;10.10;1.02;;;5.50;99.90;;;;;;5056343;28;20121;-71
2023/01/19 00:29:11;;;;;;;8.38;0.95;;;5.50;99.90;;;;;;5064057;28;20472;-71
2023/01/19 00:31:37;;;;;;;4.50;0.50;;;5.40;99.90;;;;;;5055431;28;20025;-71
2023/01/19 00:34:03;;;;;;;2.90;1.20;;;5.40;99.90;;;;;;5053191;28;20028;-71
2023/01/19 00:36:29;;;;;;;7.85;1.10;;;5.40;99.90;;;;;;5069228;28;20044;-72
2023/01/19 00:38:55;;;;;;;14.32;1.88;;;5.30;99.90;;;;;;5072382;28;20064;-71
2023/01/19 00:42:38;;;;;;;9.10;1.23;;;5.30;99.90;;;;;;5072718;28;20124;-72
2023/01/19 00:44:10;;;;;;;9.95;1.60;;;5.30;99.90;;;;;;5040141;28;20032;-71
2023/01/19 00:46:35;;;;;;;5.05;0.85;;;5.40;99.90;;;;;;5066663;28;20044;-72
2023/01/19 00:49:01;;;;;;;14.60;1.77;;;5.40;99.90;;;;;;5044904;28;20113;-72
2023/01/19 00:51:27;;;;;;;13.38;1.60;;;5.40;99.90;;;;;;5047197;28;20052;-71
2023/01/19 00:53:52;;;;;;;16.08;1.52;;;5.50;99.90;;;;;;5072134;28;20083;-71
2023/01/19 00:56:18;;;;;;;11.73;1.63;;;5.50;99.90;;;;;;5068790;28;20049;-70
2023/01/19 00:58:46;;;;;;;14.82;2.25;;;5.60;99.90;;;;;;5041609;28;20447;-70
2023/01/19 01:01:12;;;;;;;6.07;0.90;;;5.60;99.90;;;;;;5060927;28;20409;-72
2023/01/19 01:03:38;;;;;;;4.78;1.08;;;5.60;99.90;;;;;;5067139;28;20024;-71
2023/01/19 01:06:07;;;;;;;7.10;1.83;;;5.60;99.90;;;;;;5055349;28;20545;-69
2023/01/19 01:08:33;;;;;;;4.85;0.73;;;5.60;99.90;;;;;;5066566;28;20025;-71
2023/01/19 01:10:59;;;;;;;9.18;1.42;;;5.50;99.90;;;;;;5059603;28;20037;-71
2023/01/19 01:13:25;;;;;;;4.30;0.95;;;5.40;99.90;;;;;;5064657;28;20037;-71
2023/01/19 01:15:52;;;;;;;6.53;1.00;;;5.40;99.90;;;;;;5055776;28;20090;-72
2023/01/19 01:18:18;;;;;;;3.65;0.75;;;5.30;99.90;;;;;;5055725;28;20087;-71
2023/01/19 01:20:44;;;;;;;7.32;1.23;;;5.30;99.90;;;;;;5068477;28;20021;-71
2023/01/19 01:23:10;;;;;;;4.68;0.60;;;5.20;99.90;;;;;;5081329;28;20416;-71
2023/01/19 01:25:37;;;;;;;6.65;1.00;;;5.20;99.90;;;;;;5057488;28;20068;-71
2023/01/19 01:28:05;;;;;;;6.95;0.88;;;5.20;99.90;;;;;;5068127;28;20033;-72
2023/01/19 01:30:31;;;;;;;9.32;1.42;;;5.10;99.90;;;;;;5066558;28;20522;-71
2023/01/19 01:32:57;;;;;;;4.25;0.98;;;5.10;99.90;;;;;;5061091;28;20032;-72
2023/01/19 01:35:23;;;;;;;5.07;0.68;;;5.10;99.90;;;;;;5060440;28;20042;-72
2023/01/19 01:37:48;;;;;;;7.63;0.90;;;5.10;99.90;;;;;;5052089;28;20108;-71
2023/01/19 01:40:16;;;;;;;8.07;0.98;;;5.00;99.90;;;;;;5054404;28;20044;-71
2023/01/19 01:42:42;;;;;;;7.40;1.02;;;5.10;99.90;;;;;;5056015;28;20545;-71
2023/01/19 01:45:26;;;;;;;5.05;0.90;;;5.10;99.90;;;;;;5060107;28;20461;-71
2023/01/19 01:47:56;;;;;;;5.70;1.08;;;5.10;99.90;;;;;;5074819;28;20048;-71
2023/01/19 01:50:27;;;;;;;4.78;1.02;;;5.10;99.90;;;;;;5070431;28;20504;-72
2023/01/19 01:53:14;;;;;;;5.68;1.38;;;5.10;99.90;;;;;;5056071;28;20043;-72
2023/01/19 01:55:45;;;;;;;16.80;2.70;;;5.10;99.90;;;;;;5056076;28;20033;-71
2023/01/19 01:58:12;;;;;;;10.27;2.13;;;5.10;99.90;;;;;;5055579;28;20107;-71
2023/01/19 02:03:25;;;;;;;15.52;3.70;;;5.10;99.90;;;;;;5068406;28;20031;-71
2023/01/19 02:05:56;;;;;;;11.93;2.72;;;5.10;99.90;;;;;;5075760;28;20067;-71
2023/01/19 02:14:03;;;;;;;21.90;4.57;;;5.00;99.90;;;;;;5075708;28;20087;-72
2023/01/19 02:16:29;;;;;;;20.40;4.03;;;5.00;99.90;;;;;;5075267;28;20123;-72
2023/01/19 02:18:56;;;;;;;19.20;3.53;;;5.00;99.90;;;;;;5071962;28;20149;-73
2023/01/19 02:21:41;;;;;;;19.45;3.70;;;5.00;99.90;;;;;;5060704;28;20031;-72
2023/01/19 02:24:07;;;;;;;13.00;2.20;;;5.10;99.90;;;;;;5062697;28;20530;-72
2023/01/19 02:26:39;;;;;;;14.82;2.17;;;5.00;99.90;;;;;;5070152;28;20037;-71
2023/01/19 02:29:09;;;;;;;;;;;5.00;99.90;;;;;;5074088;28;20060;-71
2023/01/19 02:31:37;;;;;;;13.77;1.92;;;5.00;99.90;;;;;;5074955;28;19904;-70
2023/01/19 02:34:05;;;;;;;13.55;1.95;;;5.00;99.90;;;;;;5069712;28;20064;-71
2023/01/19 02:36:40;;;;;;;8.70;1.33;;;5.00;99.90;;;;;;5063263;28;20024;-72
2023/01/19 02:39:09;;;;;;;15.35;2.10;;;5.00;99.90;;;;;;5064358;28;20021;-71
2023/01/19 02:41:48;;;;;;;12.35;2.10;;;5.00;99.90;;;;;;5063913;28;20032;-72
2023/01/19 02:44:15;;;;;;;19.98;2.47;;;5.00;99.90;;;;;;5063830;28;20028;-71
2023/01/19 02:46:41;;;;;;;12.15;1.63;;;5.00;99.90;;;;;;5067078;28;20060;-71
2023/01/19 02:49:06;;;;;;;14.18;2.17;;;5.00;99.90;;;;;;5062770;28;20029;-72
2023/01/19 02:51:33;;;;;;;14.60;2.63;;;5.00;99.90;;;;;;5065010;28;20071;-70
2023/01/19 02:54:11;;;;;;;17.58;2.15;;;5.00;99.90;;;;;;5062259;28;20021;-71
2023/01/19 02:57:23;;;;;;;15.43;2.88;;;5.00;99.90;;;;;;5059711;28;20025;-71
2023/01/19 03:00:04;;;;;;;16.85;1.95;;;5.10;99.90;;;;;;5063083;28;20036;-69
2023/01/19 03:02:58;;;;;;;17.95;2.38;;;5.00;99.90;;;;;;5073801;28;20139;-70
2023/01/19 03:05:38;;;;;;;22.65;2.38;;;5.00;99.90;;;;;;5074517;28;20067;-71
2023/01/19 03:08:13;;;;;;;16.92;2.75;;;5.00;99.90;;;;;;5074565;28;20082;-71
2023/01/19 03:10:50;;;;;;;15.32;2.33;;;5.00;99.90;;;;;;5074409;28;20107;-71
2023/01/19 03:13:24;;;;;;;15.18;2.15;;;5.10;99.90;;;;;;5074621;28;20033;-70
2023/01/19 03:16:16;;;;;;;24.55;3.08;;;5.10;99.90;;;;;;5074283;28;20056;-71
2023/01/19 03:18:45;;;;;;;18.98;2.88;;;5.20;99.90;;;;;;5046311;28;20135;-71
2023/01/19 03:21:12;;;;;;;19.27;3.38;;;5.30;99.90;;;;;;5068479;28;20017;-71
2023/01/19 03:23:42;;;;;;;16.40;2.58;;;5.30;99.90;;;;;;5054263;28;20025;-71
2023/01/19 03:26:12;;;;;;;23.90;2.85;;;5.40;99.90;;;;;;5059744;28;20032;-69
2023/01/19 03:28:40;;;;;;;15.43;2.67;;;5.40;99.90;;;;;;5065115;28;20033;-71
2023/01/19 03:31:15;;;;;;;13.45;3.05;;;5.50;99.90;;;;;;5054339;28;20025;-70
2023/01/19 03:33:45;;;;;;;15.85;2.10;;;5.60;99.90;;;;;;5070368;28;20033;-70
2023/01/19 03:36:25;;;;;;;15.93;2.70;;;5.60;99.90;;;;;;5063068;28;20396;-70
2023/01/19 03:38:53;;;;;;;20.98;2.50;;;5.70;99.90;;;;;;5054287;28;20047;-71
2023/01/19 03:41:23;;;;;;;22.15;3.33;;;5.70;99.90;;;;;;5054065;28;20465;-70
2023/01/19 03:43:50;;;;;;;25.50;3.22;;;5.70;99.90;;;;;;5054190;28;20033;-70
2023/01/19 03:46:17;;;;;;;14.73;2.20;;;5.70;99.90;;;;;;5073759;28;20058;-71
2023/01/19 03:48:44;;;;;;;18.20;3.50;;;5.80;99.90;;;;;;5068491;28;20073;-70
2023/01/19 03:51:11;;;;;;;21.15;3.13;;;5.80;99.90;;;;;;5054140;28;20054;-71
2023/01/19 03:53:37;;;;;;;19.42;2.83;;;5.80;99.90;;;;;;5053990;28;20029;-71
2023/01/19 03:56:02;;;;;;;19.38;3.47;;;5.90;99.90;;;;;;5053973;28;20500;-70
2023/01/19 03:58:28;;;;;;;15.23;2.33;;;5.90;99.90;;;;;;5053991;28;20470;-71
2023/01/19 04:00:53;;;;;;;15.27;2.47;;;5.90;99.90;;;;;;5053698;28;20032;-70
2023/01/19 04:03:19;;;;;;;15.63;3.03;;;5.90;99.90;;;;;;5052440;28;20025;-70
2023/01/19 04:05:45;;;;;;;21.52;2.95;;;6.00;99.90;;;;;;5053489;28;20035;-69
2023/01/19 04:08:11;;;;;;;17.88;2.17;;;6.00;99.90;;;;;;5053796;28;20039;-70
2023/01/19 04:10:36;;;;;;;19.40;2.70;;;6.10;99.90;;;;;;5053683;28;20108;-70
2023/01/19 04:13:03;;;;;;;12.55;3.03;;;6.20;99.90;;;;;;5053692;28;20091;-70
2023/01/19 04:15:29;;;;;;;8.52;1.55;;;6.20;99.90;;;;;;5053594;28;20074;-71
2023/01/19 04:18:01;;;;;;;15.77;2.17;;;6.30;99.90;;;;;;5053403;28;20052;-70
2023/01/19 04:20:27;;;;;;;9.73;1.88;;;6.30;99.90;;;;;;5053515;28;20086;-70
2023/01/19 04:22:55;;;;;;;10.20;1.52;;;6.30;99.90;;;;;;5092124;28;20078;-69
2023/01/19 04:25:21;;;;;;;18.50;2.28;;;6.20;99.90;;;;;;5092257;28;20024;-70
2023/01/19 04:27:49;;;;;;;7.65;1.42;;;6.20;99.90;;;;;;5053273;28;20469;-71
2023/01/19 04:30:15;;;;;;;10.55;2.25;;;6.20;99.90;;;;;;5040244;28;20361;-70
2023/01/19 04:32:41;;;;;;;14.50;2.55;;;6.20;99.90;;;;;;5062295;28;20054;-70
2023/01/19 04:35:06;;;;;;;5.40;1.50;;;6.10;99.90;;;;;;5062214;28;20464;-70
2023/01/19 04:37:32;;;;;;;11.10;1.52;;;6.10;99.90;;;;;;5063893;28;20502;-71
2023/01/19 04:39:57;;;;;;;11.18;1.90;;;6.00;99.90;;;;;;5063767;28;20028;-71
2023/01/19 04:42:23;;;;;;;8.40;1.50;;;6.00;99.90;;;;;;5062030;28;20044;-71
2023/01/19 04:44:49;;;;;;;16.27;2.17;;;6.00;99.90;;;;;;5062642;28;20103;-70
2023/01/19 04:47:14;;;;;;;8.77;1.40;;;6.00;99.90;;;;;;5062644;28;20077;-69
2023/01/19 04:49:40;;;;;;;13.18;1.67;;;6.00;99.90;;;;;;5060717;28;20032;-70
2023/01/19 04:52:05;;;;;;;17.73;2.20;;;6.10;99.90;;;;;;5044429;28;20412;-70
2023/01/19 04:54:31;;;;;;;8.38;1.92;;;6.00;99.90;;;;;;5060931;28;20554;-69
2023/01/19 04:56:57;;;;;;;11.13;1.75;;;6.10;99.90;;;;;;5062935;28;20025;-70
2023/01/19 04:59:22;;;;;;;10.15;1.80;;;6.10;99.90;;;;;;5062412;28;20112;-71
2023/01/19 05:01:48;;;;;;;14.10;1.80;;;6.10;99.90;;;;;;5043331;28;20020;-71
2023/01/19 05:04:14;;;;;;;22.85;2.65;;;6.10;99.90;;;;;;5063030;28;20476;-68
2023/01/19 05:06:40;;;;;;;16.75;2.13;;;6.10;99.90;;;;;;5063350;28;20039;-68
2023/01/19 05:09:07;;;;;;;19.77;2.65;;;6.00;99.90;;;;;;5066360;28;20028;-69
2023/01/19 05:11:34;;;;;;;15.00;2.17;;;6.00;99.90;;;;;;5066149;28;20677;-71
2023/01/19 05:13:59;;;;;;;15.63;2.35;;;6.00;99.90;;;;;;5061835;28;20488;-71
2023/01/19 05:16:25;;;;;;;16.60;1.77;;;6.00;99.90;;;;;;5060827;28;20033;-70
2023/01/19 05:18:51;;;;;;;8.20;1.90;;;6.00;99.90;;;;;;5040690;28;20043;-71
2023/01/19 05:21:17;;;;;;;11.18;1.98;;;6.00;99.90;;;;;;5042464;28;20136;-70
2023/01/19 05:23:42;;;;;;;10.57;1.77;;;6.00;99.90;;;;;;5045416;28;20109;-69
2023/01/19 05:26:08;;;;;;;14.02;1.88;;;5.90;99.90;;;;;;5042229;28;20045;-71
2023/01/19 05:28:34;;;;;;;11.13;1.65;;;5.90;99.90;;;;;;5040364;28;20038;-69
2023/01/19 05:31:01;;;;;;;16.27;2.50;;;5.90;99.90;;;;;;5041247;28;20124;-70
2023/01/19 05:33:26;;;;;;;19.58;2.75;;;5.90;99.90;;;;;;5021924;28;20034;-71
2023/01/19 05:35:53;;;;;;;15.93;1.83;;;5.90;99.90;;;;;;5044258;28;20048;-71
2023/01/19 05:38:20;;;;;;;22.23;2.33;;;5.90;99.90;;;;;;5040580;28;20040;-70
2023/01/19 05:40:45;;;;;;;17.55;3.08;;;5.90;99.90;;;;;;5051413;28;20041;-70
2023/01/19 05:43:12;;;;;;;11.18;2.08;;;5.90;99.90;;;;;;5051436;28;20032;-70
2023/01/19 05:45:38;;;;;;;15.98;2.95;;;5.90;99.90;;;;;;5051470;28;20029;-69
2023/01/19 05:48:04;;;;;;;18.98;2.15;;;5.90;99.90;;;;;;5051465;28;20040;-69
2023/01/19 05:50:30;;;;;;;16.35;2.20;;;5.90;99.90;;;;;;5051137;28;20067;-69
2023/01/19 05:52:56;;;;;;;14.40;1.95;;;5.90;99.90;;;;;;5051546;28;20037;-70
2023/01/19 05:55:22;;;;;;;10.55;1.80;;;5.90;99.90;;;;;;5051409;28;20027;-70
2023/01/19 05:57:48;;;;;;;18.27;3.22;;;5.90;99.90;;;;;;5051431;28;20109;-71
2023/01/19 06:00:14;;;;;;;12.57;1.88;;;6.00;99.90;;;;;;5051379;28;20025;-69
2023/01/19 06:02:39;;;;;;;13.00;2.30;;;6.00;99.90;;;;;;5051435;28;20036;-71
2023/01/19 06:05:05;;;;;;;13.95;2.20;;;6.00;99.90;;;;;;5032478;28;20029;-70
2023/01/19 06:07:31;;;;;;;15.95;2.33;;;6.00;99.90;;;;;;5051408;28;20045;-71
2023/01/19 06:09:57;;;;;;;15.50;2.10;;;6.00;99.90;;;;;;5051672;28;20059;-68
2023/01/19 06:12:23;;;;;;;14.00;1.83;;;6.00;99.90;;;;;;5051531;28;20600;-71
2023/01/19 06:14:48;;;;;;;14.48;2.17;;;6.10;99.90;;;;;;5052033;28;20036;-69
2023/01/19 06:17:14;;;;;;;13.80;2.13;;;6.10;99.90;;;;;;5058334;28;20079;-70
2023/01/19 06:19:41;;;;;;;9.10;1.85;;;6.10;99.90;;;;;;5071728;28;20132;-69
2023/01/19 06:22:07;;;;;;;11.40;2.40;;;6.20;99.90;;;;;;5071856;28;20052;-71
2023/01/19 06:24:33;;;;;;;12.60;2.03;;;6.20;99.90;;;;;;5071842;28;20032;-70
2023/01/19 06:26:59;;;;;;;14.57;1.85;;;6.30;99.90;;;;;;5074317;28;20477;-68
2023/01/19 06:29:25;;;;;;;12.32;2.13;;;6.30;99.90;;;;;;5075186;28;20066;-69
2023/01/19 06:31:51;;;;;;;9.85;1.55;;;6.30;99.90;;;;;;5074814;28;20027;-69
2023/01/19 06:34:16;;;;;;;13.00;1.90;;;6.20;99.90;;;;;;5074833;28;20029;-69
2023/01/19 06:36:42;;;;;;;10.15;1.88;;;6.20;99.90;;;;;;5074613;28;20052;-69
2023/01/19 06:39:08;;;;;;;10.18;1.80;;;6.20;99.90;;;;;;5074721;28;20033;-71
2023/01/19 06:41:34;;;;;;;10.98;1.75;;;6.20;99.90;;;;;;5074639;28;20070;-71
2023/01/19 06:44:00;;;;;;;14.13;1.75;;;6.20;99.90;;;;;;5074705;28;20032;-68
2023/01/19 06:46:26;;;;;;;13.88;2.03;;;6.20;99.90;;;;;;5074636;28;20064;-71
2023/01/19 06:48:53;;;;;;;10.18;1.90;;;6.10;99.90;;;;;;5074319;28;20056;-68
2023/01/19 06:51:18;;;;;;;10.55;1.67;;;6.10;99.90;;;;;;5074496;28;20115;-69
2023/01/19 06:53:44;;;;;;;10.23;1.65;;;6.10;99.90;;;;;;5061288;28;20444;-71
2023/01/19 06:56:10;;;;;;;10.63;1.55;;;6.10;99.90;;;;;;5073210;28;20029;-69
2023/01/19 06:58:35;;;;;;;13.15;1.88;;;6.10;99.90;;;;;;5074305;28;20025;-70
2023/01/19 07:01:03;;;;;;;9.10;2.22;;;6.10;99.90;;;;;;5074208;28;20108;-71
2023/01/19 07:03:30;;;;;;;12.27;1.80;;;6.00;99.90;;;;;;5074281;28;20144;-70
2023/01/19 07:05:56;;;;;;;10.25;1.77;;;5.90;99.90;;;;;;5074132;28;20032;-69
2023/01/19 07:08:22;;;;;;;6.78;1.73;;;5.90;99.90;;;;;;5074150;28;20480;-68
2023/01/19 07:10:48;;;;;;;9.52;1.50;;;5.80;99.90;;;;;;5074076;28;20024;-69
2023/01/19 07:13:14;;;;;;;9.60;1.50;;;5.70;99.90;;;;;;5073602;28;20460;-70
2023/01/19 07:15:40;;;;;;;11.45;1.25;;;5.70;99.90;;;;;;5074219;28;20060;-70
2023/01/19 07:18:06;;;;;;;13.82;2.00;;;5.60;99.90;;;;;;5073674;28;20048;-68
2023/01/19 07:20:33;;;;;;;10.75;1.65;;;5.60;99.90;;;;;;5073680;28;20093;-70
2023/01/19 07:22:59;;;;;;;13.30;1.70;;;5.50;99.90;;;;;;5054112;28;20060;-70
2023/01/19 07:25:25;;;;;;;11.00;1.92;;;5.50;99.90;;;;;;5053788;28;20370;-69
2023/01/19 07:27:51;;;;;;;8.60;1.63;;;5.50;99.90;;;;;;5054025;28;20025;-69
2023/01/19 07:30:17;;;;;;;15.45;1.77;;;5.50;99.90;;;;;;5053682;28;20108;-69
2023/01/19 07:32:43;;;;;;;7.53;1.52;;;5.50;99.90;;;;;;5054210;28;20075;-70
2023/01/19 07:35:09;;;;;;;15.02;1.45;;;5.60;99.90;;;;;;5054589;28;20033;-71
2023/01/19 07:37:34;;;;;;;10.07;1.40;;;5.60;99.90;;;;;;5053601;28;20032;-69
2023/01/19 07:40:00;;;;;;;12.60;1.63;;;5.60;99.90;;;;;;5053873;28;20369;-68
2023/01/19 07:42:26;;;;;;;6.53;1.33;;;5.60;99.90;;;;;;5053922;28;20071;-71
2023/01/19 07:44:51;;;;;;;11.63;1.33;;;5.70;99.90;;;;;;5053811;28;20492;-68
2023/01/19 07:47:17;;;;;;;7.40;1.40;;;5.70;99.90;;;;;;5053535;28;20033;-70
2023/01/19 07:49:42;;;;;;;6.38;1.30;;;5.70;99.90;;;;;;5053790;28;20029;-69
2023/01/19 07:52:08;;;;;;;14.57;1.67;;;5.70;99.90;;;;;;5053518;28;20029;-69
2023/01/19 07:54:34;;;;;;;9.77;1.40;;;5.70;99.90;;;;;;5053903;28;20060;-69
2023/01/19 07:56:59;;;;;;;9.27;1.40;;;5.60;99.90;;;;;;5053074;28;20060;-70
2023/01/19 07:59:26;;;;;;;8.52;1.88;;;5.60;99.90;;;;;;5053440;28;20025;-71
2023/01/19 08:01:52;;;;;;;6.05;1.52;;;5.60;99.90;;;;;;5052626;28;20469;-69
2023/01/19 08:04:19;;;;;;;8.77;1.38;;;5.60;99.90;;;;;;5053543;28;20025;-67
2023/01/19 08:06:46;;;;;;;9.05;1.40;;;5.70;99.90;;;;;;5053219;28;20403;-70
2023/01/19 08:09:12;;;;;;;12.75;1.50;;;5.70;99.90;;;;;;5053325;28;20021;-71
2023/01/19 08:11:37;;;;;;;5.85;1.83;;;5.70;99.90;;;;;;5053317;28;20033;-68
2023/01/19 08:14:03;;;;;;;12.10;1.90;;;5.80;99.90;;;;;;5053354;28;20029;-71
2023/01/19 08:16:29;;;;;;;10.30;1.45;;;5.70;99.90;;;;;;5052884;28;20370;-71
2023/01/19 08:18:54;;;;;;;10.43;1.88;;;5.70;99.90;;;;;;5052934;28;20428;-68
2023/01/19 08:21:20;;;;;;;9.57;1.45;;;5.70;99.90;;;;;;5060867;28;20039;-70
2023/01/19 08:23:56;;;;;;;11.45;1.75;;;5.60;99.90;;;;;;5071472;28;20471;-68
2023/01/19 08:26:28;;;;;;;7.38;1.80;;;5.60;99.90;;;;;;5072884;28;20044;-69
2023/01/19 08:28:55;;;;;;;;;;;5.50;99.90;;;;;;5073599;28;20028;-69
2023/01/19 08:31:21;;;;;;;13.70;1.73;;;5.50;99.90;;;;;;5072752;28;19950;-71
2023/01/19 08:33:46;;;;;;;12.55;2.05;;;5.40;99.90;;;;;;5072543;28;20021;-69
2023/01/19 08:36:13;;;;;;;11.90;1.85;;;5.30;99.90;;;;;;5054325;28;20468;-68
2023/01/19 08:38:42;;;;;;;10.27;1.88;;;5.30;99.90;;;;;;5071771;28;20040;-69
2023/01/19 08:41:08;;;;;;;10.38;1.60;;;5.30;99.90;;;;;;5066747;28;20027;-71
2023/01/19 08:43:33;;;;;;;5.60;1.15;;;5.40;99.90;;;;;;5054213;28;20364;-69
2023/01/19 08:45:59;;;;;;;9.65;1.45;;;5.40;99.90;;;;;;5072908;28;20036;-70
2023/01/19 08:48:25;;;;;;;11.82;1.42;;;5.40;99.90;;;;;;5072534;28;20107;-69
2023/01/19 08:50:51;;;;;;;7.97;1.50;;;5.50;99.90;;;;;;5073131;28;20033;-70
2023/01/19 08:53:18;;;;;;;9.88;1.80;;;5.50;99.90;;;;;;5072621;28;20032;-70
2023/01/19 08:55:43;;;;;;;7.07;1.75;;;5.50;99.90;;;;;;5072633;28;20020;-71
2023/01/19 08:58:09;;;;;;;11.32;2.05;;;5.60;99.90;;;;;;5072277;28;20364;-68
2023/01/19 09:00:39;;;;;;;8.93;1.95;;;5.60;99.90;;;;;;5071992;28;20047;-70
2023/01/19 09:03:06;;;;;;;11.40;1.40;;;5.70;99.90;;;;;;5072743;28;20031;-69
2023/01/19 09:05:34;;;;;;;10.60;2.22;;;5.70;99.90;;;;;;5073013;28;20025;-70
2023/01/19 09:08:01;;;;;;;7.28;1.25;;;5.70;99.90;;;;;;5072708;28;20453;-67
2023/01/19 09:10:30;;;;;;;11.20;1.98;;;5.70;99.90;;;;;;5072618;28;20472;-69
2023/01/19 09:12:56;;;;;;;9.82;1.58;;;5.70;99.90;;;;;;5072660;28;20091;-69
2023/01/19 09:15:22;;;;;;;10.30;1.40;;;5.80;99.90;;;;;;5072955;28;20381;-70
2023/01/19 09:17:47;;;;;;;8.73;1.58;;;5.80;99.90;;;;;;5072715;28;20102;-70
2023/01/19 09:20:13;;;;;;;9.52;1.20;;;5.80;99.90;;;;;;5072920;28;20070;-69
2023/01/19 09:22:38;;;;;;;10.40;1.13;;;5.80;99.90;;;;;;5054332;28;20108;-69
2023/01/19 09:25:06;;;;;;;5.75;1.38;;;5.80;99.90;;;;;;5052481;28;20021;-70
2023/01/19 09:27:31;;;;;;;11.20;1.58;;;5.80;99.90;;;;;;5052491;28;20044;-69
2023/01/19 09:29:57;;;;;;;7.57;1.00;;;5.90;99.90;;;;;;5051996;28;20031;-71
2023/01/19 09:32:23;;;;;;;9.80;1.60;;;5.90;99.90;;;;;;5052371;28;20037;-69
2023/01/19 09:34:48;;;;;;;8.93;1.77;;;5.90;99.90;;;;;;5052181;28;20029;-71
2023/01/19 09:37:15;;;;;;;3.38;0.98;;;6.00;99.90;;;;;;5034387;28;20033;-70
2023/01/19 09:39:40;;;;;;;5.07;1.05;;;6.00;99.90;;;;;;5052422;28;20151;-70
2023/01/19 09:42:29;;;;;;;10.10;1.40;;;6.10;99.90;;;;;;5052526;28;20108;-70
2023/01/19 09:44:55;;;;;;;5.85;1.40;;;6.10;99.90;;;;;;5052404;28;20025;-71
2023/01/19 09:47:27;;;;;;;7.82;1.70;;;6.20;99.90;;;;;;5052501;28;20040;-70
2023/01/19 09:50:11;;;;;;;10.80;1.80;;;6.30;99.90;;;;;;5052185;28;20386;-72
2023/01/19 09:52:42;;;;;;;5.10;1.50;;;6.50;99.90;;;;;;5052137;28;20040;-71
2023/01/19 09:55:20;;;;;;;5.38;0.82;;;6.70;99.90;;;;;;5033942;28;20429;-70
2023/01/19 09:57:45;;;;;;;9.30;1.33;;;7.00;99.90;;;;;;5052213;28;20025;-68
2023/01/19 10:00:16;;;;;;;7.05;1.20;;;7.50;99.90;;;;;;5064505;28;20133;-69
2023/01/19 10:03:00;;;;;;;6.38;1.08;;;8.00;99.90;;;;;;5056198;28;20040;-70
2023/01/19 10:05:29;;;;;;;5.95;1.20;;;8.50;99.90;;;;;;5056311;28;20021;-72
2023/01/19 10:08:28;;;;;;;3.55;1.40;;;9.10;99.90;;;;;;5056123;28;20128;-72
2023/01/19 10:10:56;;;;;;;8.55;1.40;;;9.60;99.90;;;;;;5056119;28;20051;-71
2023/01/19 10:13:47;;;;;;;8.35;1.30;;;10.30;99.90;;;;;;5056055;28;20020;-72
2023/01/19 10:16:51;;;;;;;6.60;1.17;;;10.90;99.90;;;;;;5055958;28;20025;-71
2023/01/19 10:19:26;;;;;;;8.18;1.92;;;11.60;98.80;;;;;;5031707;28;20048;-69
2023/01/19 10:21:54;;;;;;;6.28;1.20;;;12.10;97.10;;;;;;5067474;28;20029;-71
2023/01/19 10:24:36;;;;;;;4.80;1.38;;;12.50;96.40;;;;;;5075346;28;20526;-71
2023/01/19 10:27:08;;;;;;;3.65;0.73;;;13.00;96.00;;;;;;5075650;28;20082;-72
2023/01/19 10:29:36;;;;;;;4.32;0.90;;;13.20;94.10;;;;;;5075319;28;20021;-72
2023/01/19 10:32:19;;;;;;;6.18;1.40;;;13.10;93.80;;;;;;5075404;28;20035;-69
2023/01/19 10:34:46;;;;;;;7.00;1.30;;;12.70;94.30;;;;;;5068237;28;20020;-71
2023/01/19 10:37:11;;;;;;;5.85;1.20;;;12.10;95.30;;;;;;5066900;28;20025;-72
2023/01/19 10:39:38;;;;;;;10.00;1.73;;;11.90;96.40;;;;;;5062510;28;20024;-69
2023/01/19 10:42:05;;;;;;;8.45;1.70;;;12.20;96.70;;;;;;5067142;28;20366;-71
2023/01/19 10:44:36;;;;;;;11.02;2.65;;;12.50;95.60;;;;;;5065669;28;20044;-70
2023/01/19 10:47:05;;;;;;;7.47;1.40;;;12.50;96.00;;;;;;5061664;28;20090;-68
2023/01/19 10:49:39;;;;;;;6.68;1.67;;;12.70;95.40;;;;;;5062780;28;20036;-69
2023/01/19 10:52:07;;;;;;;5.88;1.27;;;12.70;95.60;;;;;;5064990;28;20601;-69
2023/01/19 10:54:35;;;;;;;6.82;1.55;;;12.40;95.50;;;;;;5065470;28;20044;-70
2023/01/19 10:57:08;;;;;;;8.60;1.70;;;12.30;96.00;;;;;;5064559;28;20016;-68
2023/01/19 10:59:37;;;;;;;11.68;1.95;;;12.10;96.00;;;;;;5061971;28;20082;-68
2023/01/19 11:02:26;;;;;;;12.90;1.98;;;11.60;96.40;;;;;;5061322;28;20025;-72
2023/01/19 11:04:54;;;;;;;9.32;1.80;;;11.00;97.70;;;;;;5063974;28;20426;-69
2023/01/19 11:07:28;;;;;;;10.85;1.98;;;10.90;98.00;;;;;;5064697;28;20120;-70
2023/01/19 11:10:16;;;;;;;10.38;2.00;;;11.40;98.10;;;;;;5069025;28;20166;-74
2023/01/19 11:13:02;;;;;;;4.85;1.40;;;12.10;98.30;;;;;;5066430;28;20025;-72
2023/01/19 11:15:46;;;;;;;10.73;1.85;;;12.90;97.20;;;;;;5065251;28;20029;-70
2023/01/19 11:18:27;;;;;;;4.28;1.45;;;13.80;95.50;;;;;;5046888;28;20511;-68
2023/01/19 11:20:56;;;;;;;8.60;1.80;;;14.50;95.10;;;;;;5041702;28;20028;-71
2023/01/19 11:23:32;;;;;;;13.77;2.10;;;14.70;94.40;;;;;;5041504;28;20089;-70
2023/01/19 11:26:00;;;;;;;9.52;1.90;;;14.50;94.50;;;;;;5041767;28;20041;-70
2023/01/19 11:28:48;;;;;;;7.53;1.88;;;14.10;94.30;;;;;;5042030;28;20436;-70
2023/01/19 11:31:13;;;;;;;11.05;2.05;;;13.50;94.60;;;;;;5035021;28;20071;-72
2023/01/19 11:33:50;;;;;;;6.75;3.00;;;13.10;95.40;;;;;;5043147;28;20033;-68
2023/01/19 11:36:26;;;;;;;8.00;1.77;;;13.30;95.50;;;;;;5044087;28;20481;-70
2023/01/19 11:38:55;;;;;;;7.78;1.50;;;13.50;94.90;;;;;;5042002;28;20035;-71
2023/01/19 11:41:25;;;;;;;11.85;2.28;;;13.70;95.30;;;;;;5043008;28;20075;-70
2023/01/19 11:43:55;;;;;;;11.45;1.63;;;14.00;94.40;;;;;;5042246;28;20119;-70
2023/01/19 11:46:25;;;;;;;7.95;1.65;;;13.90;94.30;;;;;;5042391;28;20034;-70
2023/01/19 11:49:10;;;;;;;11.30;2.13;;;13.80;94.30;;;;;;5040528;28;20021;-69
2023/01/19 11:51:57;;;;;;;15.65;2.90;;;13.60;94.10;;;;;;5038151;28;20030;-71
2023/01/19 11:54:28;;;;;;;8.48;2.08;;;13.00;95.00;;;;;;5041457;28;20083;-70
2023/01/19 11:56:57;;;;;;;7.57;1.50;;;12.40;95.90;;;;;;5041462;28;20025;-68
2023/01/19 11:59:23;;;;;;;8.75;2.47;;;12.10;96.50;;;;;;5042239;28;20028;-69
2023/01/19 12:01:54;;;;;;;12.07;1.83;;;12.20;96.70;;;;;;5043735;28;20457;-71
2023/01/19 12:04:28;;;;;;;6.13;1.75;;;12.40;96.40;;;;;;5040775;28;20079;-68
2023/01/19 12:06:56;;;;;;;7.35;1.40;;;12.10;96.20;;;;;;5031097;28;20041;-71
2023/01/19 12:09:34;;;;;;;7.28;1.50;;;11.70;96.20;;;;;;5042271;28;20031;-71
2023/01/19 12:12:06;;;;;;;9.10;1.50;;;11.60;96.60;;;;;;5041421;28;20025;-70
2023/01/19 12:15:04;;;;;;;8.80;1.65;;;11.60;97.00;;;;;;5041395;28;20086;-71
2023/01/19 12:17:40;;;;;;;8.05;2.03;;;11.80;96.90;;;;;;5023291;28;20054;-69
2023/01/19 12:20:31;;;;;;;7.32;1.50;;;11.90;97.00;;;;;;5042266;28;20052;-68
2023/01/19 12:23:14;;;;;;;12.10;1.83;;;12.30;96.60;;;;;;5040784;28;20029;-71
2023/01/19 12:25:52;;;;;;;7.45;1.40;;;12.70;96.10;;;;;;5044802;28;20472;-68
2023/01/19 12:28:22;;;;;;;6.15;1.42;;;12.70;95.90;;;;;;5047041;28;20048;-71
2023/01/19 12:30:50;;;;;;;6.28;1.30;;;12.70;96.10;;;;;;5049120;28;20028;-71
2023/01/19 12:33:25;;;;;;;6.25;1.10;;;12.60;95.70;;;;;;5051299;28;21245;-71
2023/01/19 12:35:59;;;;;;;6.43;1.20;;;12.50;95.50;;;;;;5050032;28;20033;-72
2023/01/19 12:38:43;;;;;;;6.60;1.55;;;12.30;95.80;;;;;;5050167;28;20151;-70
2023/01/19 12:41:18;;;;;;;6.30;1.27;;;12.30;95.50;;;;;;5049232;28;20025;-68
2023/01/19 12:43:45;;;;;;;7.30;1.17;;;12.40;95.60;;;;;;5050791;28;20443;-69
2023/01/19 12:46:28;;;;;;;9.57;1.20;;;12.40;95.30;;;;;;5043866;28;20042;-71
2023/01/19 12:49:04;;;;;;;8.23;1.77;;;12.40;95.20;;;;;;5038018;28;20063;-72
2023/01/19 12:51:30;;;;;;;6.40;1.40;;;12.30;95.30;;;;;;5050067;28;20256;-71
2023/01/19 12:53:58;;;;;;;8.05;1.65;;;12.30;95.60;;;;;;5045655;28;20025;-69
2023/01/19 12:56:35;;;;;;;10.35;1.90;;;12.30;95.90;;;;;;5046408;28;20028;-69
2023/01/19 12:59:02;;;;;;;4.30;1.25;;;12.40;96.10;;;;;;5049568;28;20085;-68
2023/01/19 13:01:28;;;;;;;10.23;1.42;;;12.40;95.40;;;;;;5047736;28;20025;-72
2023/01/19 13:04:00;;;;;;;6.20;1.85;;;12.40;94.90;;;;;;5047032;28;20075;-70
2023/01/19 13:06:47;;;;;;;7.35;1.50;;;12.30;95.20;;;;;;5048027;28;20045;-71
2023/01/19 13:09:33;;;;;;;5.35;1.52;;;12.20;95.20;;;;;;5049643;28;20380;-69
2023/01/19 13:12:31;;;;;;;5.35;1.20;;;12.10;95.60;;;;;;5047873;28;20025;-71